Time,TemperatureF,DewpointF,PressureIn,WindDirection,WindDirectionDegrees,WindSpeedMPH,WindSpeedGustMPH,Humidity,HourlyPrecipIn,Conditions,Clouds,dailyrainin,SoftwareType,DateUTC
2013-08-17 00:01:00,63.5,59.9,30.10,East,94,0.0,0.0,88,0.00,CLR,SKC,0.00,WeatherDisplay:10.37,2013-08-17 05:01:00,
2013-08-17 00:06:00,63.4,59.8,30.10,East,93,0.0,0.0,88,0.00,CLR,SKC,0.00,WeatherDisplay:10.37,2013-08-17 05:06:00,
2013-08-17 00:11:00,63.5,59.9,30.10,East,87,0.0,0.0,88,0.00,CLR,SKC,0.00,WeatherDisplay:10.37,2013-08-17 05:11:00,
2013-08-17 00:16:00,63.4,59.8,30.10,East,87,0.0,0.0,88,0.00,CLR,SKC,0.00,WeatherDisplay:10.37,2013-08-17 05:16:00,
2013-08-17 00:21:00,63.1,59.8,30.10,East,87,0.0,0.0,89,0.00,CLR,SKC,0.00,WeatherDisplay:10.37,2013-08-17 05:21:00,
2013-08-17 00:26:00,62.8,59.5,30.10,East,87,0.0,0.0,89,0.00,CLR,SKC,0.00,WeatherDisplay:10.37,2013-08-17 05:26:00,
2013-08-17 00:31:00,62.5,59.2,30.10,East,87,0.0,0.0,89,0.00,CLR,SKC,0.00,WeatherDisplay:10.37,2013-08-17 05:31:00,
2013-08-17 00:36:00,62.4,59.1,30.10,East,88,1.2,1.2,89,0.00,CLR,SKC,0.00,WeatherDisplay:10.37,2013-08-17 05:36:00,
2013-08-17 00:41:00,62.4,59.1,30.10,East,87,0.0,0.0,89,0.00,CLR,SKC,0.00,WeatherDisplay:10.37,2013-08-17 05:41:00,
2013-08-17 00:46:00,62.2,58.9,30.10,East,87,0.0,0.0,89,0.00,CLR,SKC,0.00,WeatherDisplay:10.37,2013-08-17 05:46:00,
2013-08-17 00:51:00,62.1,58.8,30.10,East,87,0.0,0.0,89,0.00,CLR,SKC,0.00,WeatherDisplay:10.37,2013-08-17 05:51:00,
2013-08-17 00:56:00,61.8,58.8,30.10,East,87,0.0,0.0,90,0.00,CLR,SKC,0.00,WeatherDisplay:10.37,2013-08-17 05:56:00,
2013-08-17 01:01:00,61.4,58.4,30.10,East,87,0.0,0.0,90,0.00,CLR,SKC,0.00,WeatherDisplay:10.37,2013-08-17 06:01:00,
2013-08-17 01:06:00,61.1,58.5,30.10,East,87,0.0,0.0,91,0.00,CLR,SKC,0.00,WeatherDisplay:10.37,2013-08-17 06:06:00,
2013-08-17 01:11:00,60.8,58.5,30.11,East,87,0.0,0.0,92,0.00,CLR,SKC,0.00,WeatherDisplay:10.37,2013-08-17 06:11:00,
2013-08-17 01:16:00,60.5,58.5,30.10,East,87,0.0,0.0,93,0.00,CLR,SKC,0.00,WeatherDisplay:10.37,2013-08-17 06:16:00,
2013-08-17 01:21:00,60.3,58.3,30.10,East,87,0.0,0.0,93,0.00,CLR,SKC,0.00,WeatherDisplay:10.37,2013-08-17 06:21:00,
2013-08-17 01:26:00,60.0,58.0,30.10,East,87,0.0,0.0,93,0.00,CLR,SKC,0.00,WeatherDisplay:10.37,2013-08-17 06:26:00,
2013-08-17 01:31:00,59.9,57.9,30.11,East,87,0.0,0.0,93,0.00,CLR,SKC,0.00,WeatherDisplay:10.37,2013-08-17 06:31:00,
2013-08-17 01:36:00,59.6,57.6,30.11,East,87,0.0,0.0,93,0.00,CLR,SKC,0.00,WeatherDisplay:10.37,2013-08-17 06:36:00,
2013-08-17 01:42:00,59.6,57.9,30.10,East,87,0.0,0.0,94,0.00,CLR,SKC,0.00,WeatherDisplay:10.37,2013-08-17 06:42:00,
2013-08-17 01:47:00,59.8,58.1,30.11,East,87,0.0,0.0,94,0.00,CLR,SKC,0.00,WeatherDisplay:10.37,2013-08-17 06:47:00,
2013-08-17 01:52:00,59.7,57.7,30.11,East,87,0.0,0.0,93,0.00,CLR,SKC,0.00,WeatherDisplay:10.37,2013-08-17 06:52:00,
2013-08-17 01:57:00,59.7,58.0,30.11,East,87,0.0,0.0,94,0.00,CLR,SKC,0.00,WeatherDisplay:10.37,2013-08-17 06:57:00,
2013-08-17 02:02:00,60.3,58.0,30.11,East,87,0.0,0.0,92,0.00,CLR,SKC,0.00,WeatherDisplay:10.37,2013-08-17 07:02:00,
2013-08-17 02:07:00,60.9,58.3,30.11,East,87,1.2,0.0,91,0.00,CLR,SKC,0.00,WeatherDisplay:10.37,2013-08-17 07:07:00,
2013-08-17 02:12:00,61.0,58.4,30.11,East,87,0.0,0.0,91,0.00,CLR,SKC,0.00,WeatherDisplay:10.37,2013-08-17 07:12:00,
2013-08-17 02:17:00,60.9,58.3,30.11,East,87,0.0,0.0,91,0.00,CLR,SKC,0.00,WeatherDisplay:10.37,2013-08-17 07:17:00,
2013-08-17 02:22:00,60.7,58.1,30.10,East,87,0.0,0.0,91,0.00,CLR,SKC,0.00,WeatherDisplay:10.37,2013-08-17 07:22:00,
2013-08-17 02:27:00,60.4,58.1,30.10,East,87,0.0,0.0,92,0.00,CLR,SKC,0.00,WeatherDisplay:10.37,2013-08-17 07:27:00,
2013-08-17 02:32:00,60.0,57.7,30.10,East,87,0.0,0.0,92,0.00,CLR,SKC,0.00,WeatherDisplay:10.37,2013-08-17 07:32:00,
2013-08-17 02:37:00,59.7,57.4,30.10,East,87,0.0,0.0,92,0.00,CLR,SKC,0.00,WeatherDisplay:10.37,2013-08-17 07:37:00,
2013-08-17 02:42:00,59.4,57.4,30.10,East,87,0.0,0.0,93,0.00,CLR,SKC,0.00,WeatherDisplay:10.37,2013-08-17 07:42:00,
2013-08-17 02:47:00,59.3,57.3,30.11,East,87,0.0,0.0,93,0.00,CLR,SKC,0.00,WeatherDisplay:10.37,2013-08-17 07:47:00,
2013-08-17 02:52:00,59.2,57.2,30.11,East,87,0.0,0.0,93,0.00,CLR,SKC,0.00,WeatherDisplay:10.37,2013-08-17 07:52:00,
2013-08-17 02:57:00,58.8,56.8,30.11,East,87,0.0,0.0,93,0.00,CLR,SKC,0.00,WeatherDisplay:10.37,2013-08-17 07:57:00,
2013-08-17 03:02:00,58.3,56.3,30.11,East,87,0.0,0.0,93,0.00,CLR,SKC,0.00,WeatherDisplay:10.37,2013-08-17 08:02:00,
2013-08-17 03:07:00,58.2,56.5,30.11,East,87,0.0,0.0,94,0.00,CLR,SKC,0.00,WeatherDisplay:10.37,2013-08-17 08:07:00,
2013-08-17 03:12:00,58.6,57.5,30.11,East,87,0.0,0.0,96,0.00,CLR,SKC,0.00,WeatherDisplay:10.37,2013-08-17 08:12:00,
2013-08-17 03:17:00,59.1,57.4,30.11,East,87,0.0,0.0,94,0.00,CLR,SKC,0.00,WeatherDisplay:10.37,2013-08-17 08:17:00,
2013-08-17 03:22:00,59.0,57.3,30.11,East,87,0.0,0.0,94,0.00,CLR,SKC,0.00,WeatherDisplay:10.37,2013-08-17 08:22:00,
2013-08-17 03:27:00,59.0,57.3,30.11,East,87,0.0,0.0,94,0.00,CLR,SKC,0.00,WeatherDisplay:10.37,2013-08-17 08:27:00,
2013-08-17 03:32:00,59.0,57.3,30.11,East,87,0.0,0.0,94,0.00,CLR,SKC,0.00,WeatherDisplay:10.37,2013-08-17 08:32:00,
2013-08-17 03:37:00,59.1,57.4,30.11,East,87,0.0,0.0,94,0.00,CLR,SKC,0.00,WeatherDisplay:10.37,2013-08-17 08:37:00,
2013-08-17 03:42:00,59.2,57.5,30.11,East,87,0.0,0.0,94,0.00,CLR,SKC,0.00,WeatherDisplay:10.37,2013-08-17 08:42:00,
2013-08-17 03:47:00,59.3,57.6,30.11,East,87,0.0,0.0,94,0.00,CLR,SKC,0.00,WeatherDisplay:10.37,2013-08-17 08:47:00,
2013-08-17 03:52:00,59.3,57.6,30.11,East,87,0.0,0.0,94,0.00,CLR,SKC,0.00,WeatherDisplay:10.37,2013-08-17 08:52:00,
2013-08-17 03:57:00,59.4,57.7,30.12,East,87,0.0,0.0,94,0.00,CLR,SKC,0.00,WeatherDisplay:10.37,2013-08-17 08:57:00,
2013-08-17 04:02:00,59.5,57.8,30.12,SE,127,1.2,0.0,94,0.00,CLR,SKC,0.00,WeatherDisplay:10.37,2013-08-17 09:02:00,
2013-08-17 04:07:00,59.6,57.9,30.11,SE,127,1.2,1.2,94,0.00,CLR,SKC,0.00,WeatherDisplay:10.37,2013-08-17 09:07:00,
2013-08-17 04:12:00,59.6,57.9,30.11,SE,127,1.1,0.0,94,0.00,CLR,SKC,0.00,WeatherDisplay:10.37,2013-08-17 09:12:00,
2013-08-17 04:17:00,59.6,57.9,30.11,SE,127,0.0,0.0,94,0.00,CLR,SKC,0.00,WeatherDisplay:10.37,2013-08-17 09:17:00,
2013-08-17 04:22:00,59.7,58.0,30.11,SE,127,1.2,1.2,94,0.00,CLR,SKC,0.00,WeatherDisplay:10.37,2013-08-17 09:22:00,
2013-08-17 04:27:00,59.8,58.1,30.11,SE,127,1.2,0.0,94,0.00,CLR,SKC,0.00,WeatherDisplay:10.37,2013-08-17 09:27:00,
2013-08-17 04:32:00,59.9,58.2,30.11,ESE,122,1.2,1.2,94,0.00,CLR,SKC,0.00,WeatherDisplay:10.37,2013-08-17 09:32:00,
2013-08-17 04:37:00,60.1,58.4,30.12,ESE,120,1.2,1.2,94,0.00,CLR,SKC,0.00,WeatherDisplay:10.37,2013-08-17 09:37:00,
2013-08-17 04:42:00,60.3,58.6,30.12,SE,129,1.2,1.2,94,0.00,CLR,SKC,0.00,WeatherDisplay:10.37,2013-08-17 09:42:00,
2013-08-17 04:47:00,60.4,58.7,30.12,ESE,117,1.2,1.2,94,0.00,CLR,SKC,0.00,WeatherDisplay:10.37,2013-08-17 09:47:00,
2013-08-17 04:52:00,60.4,58.7,30.11,ESE,120,1.2,1.2,94,0.00,CLR,SKC,0.00,WeatherDisplay:10.37,2013-08-17 09:52:00,
2013-08-17 04:57:00,60.5,58.8,30.11,ESE,120,0.0,0.0,94,0.00,CLR,SKC,0.00,WeatherDisplay:10.37,2013-08-17 09:57:00,
2013-08-17 05:02:00,60.7,59.0,30.12,SSE,150,1.1,1.1,94,0.00,CLR,SKC,0.00,WeatherDisplay:10.37,2013-08-17 10:02:00,
2013-08-17 05:07:00,60.9,59.2,30.12,SE,126,2.1,2.1,94,0.00,CLR,SKC,0.00,WeatherDisplay:10.37,2013-08-17 10:07:00,
2013-08-17 05:12:00,61.0,59.0,30.11,SE,134,1.2,0.0,93,0.00,CLR,SKC,0.00,WeatherDisplay:10.37,2013-08-17 10:12:00,
2013-08-17 05:17:00,61.0,59.0,30.11,ESE,117,1.2,1.2,93,0.00,CLR,SKC,0.00,WeatherDisplay:10.37,2013-08-17 10:17:00,
2013-08-17 05:22:00,61.0,59.0,30.11,ESE,103,2.3,2.3,93,0.00,CLR,SKC,0.00,WeatherDisplay:10.37,2013-08-17 10:22:00,
2013-08-17 05:27:00,61.1,59.1,30.11,East,96,2.3,2.3,93,0.00,CLR,SKC,0.00,WeatherDisplay:10.37,2013-08-17 10:27:00,
2013-08-17 05:32:00,61.0,59.0,30.11,ESE,104,0.0,0.0,93,0.00,CLR,SKC,0.00,WeatherDisplay:10.37,2013-08-17 10:32:00,
2013-08-17 05:37:00,61.1,59.1,30.11,SE,131,1.2,0.0,93,0.00,CLR,SKC,0.00,WeatherDisplay:10.37,2013-08-17 10:37:00,
2013-08-17 05:42:00,61.1,58.8,30.11,SE,144,1.1,0.0,92,0.00,CLR,SKC,0.00,WeatherDisplay:10.37,2013-08-17 10:42:00,
2013-08-17 05:47:00,61.1,58.8,30.11,SE,127,1.1,1.1,92,0.00,CLR,SKC,0.00,WeatherDisplay:10.37,2013-08-17 10:47:00,
2013-08-17 05:52:00,61.1,58.8,30.11,SE,125,1.2,1.2,92,0.00,CLR,SKC,0.00,WeatherDisplay:10.37,2013-08-17 10:52:00,
2013-08-17 05:57:00,61.2,58.9,30.11,ESE,116,0.0,0.0,92,0.00,CLR,SKC,0.00,WeatherDisplay:10.37,2013-08-17 10:57:00,
2013-08-17 06:02:00,61.2,58.9,30.11,ESE,121,1.1,1.1,92,0.00,CLR,SKC,0.00,WeatherDisplay:10.37,2013-08-17 11:02:00,
2013-08-17 06:07:00,61.1,58.8,30.11,SE,128,1.2,0.0,92,0.00,CLR,SKC,0.00,WeatherDisplay:10.37,2013-08-17 11:07:00,
2013-08-17 06:12:00,61.2,58.9,30.11,SE,127,1.1,0.0,92,0.00,CLR,SKC,0.00,WeatherDisplay:10.37,2013-08-17 11:12:00,
2013-08-17 06:17:00,61.2,58.6,30.11,SE,134,1.2,1.2,91,0.00,CLR,SKC,0.00,WeatherDisplay:10.37,2013-08-17 11:17:00,
2013-08-17 06:22:00,61.2,58.6,30.11,SE,138,1.2,1.2,91,0.00,CLR,SKC,0.00,WeatherDisplay:10.37,2013-08-17 11:22:00,
2013-08-17 06:27:00,61.2,58.6,30.11,SE,134,1.2,1.2,91,0.00,CLR,SKC,0.00,WeatherDisplay:10.37,2013-08-17 11:27:00,
2013-08-17 06:32:00,61.2,58.9,30.11,SE,143,1.2,1.2,92,0.00,CLR,SKC,0.00,WeatherDisplay:10.37,2013-08-17 11:32:00,
2013-08-17 06:37:00,61.2,58.6,30.11,SE,126,2.3,2.3,91,0.00,CLR,SKC,0.00,WeatherDisplay:10.37,2013-08-17 11:37:00,
2013-08-17 06:42:00,61.2,58.6,30.11,SE,128,1.2,1.2,91,0.00,CLR,SKC,0.00,WeatherDisplay:10.37,2013-08-17 11:42:00,
2013-08-17 06:47:00,61.3,58.7,30.12,SE,144,1.2,0.0,91,0.00,CLR,SKC,0.00,WeatherDisplay:10.37,2013-08-17 11:47:00,
2013-08-17 06:52:00,61.3,58.7,30.12,SE,133,1.2,0.0,91,0.00,CLR,SKC,0.00,WeatherDisplay:10.37,2013-08-17 11:52:00,
2013-08-17 06:57:00,61.3,58.7,30.12,ESE,104,1.2,1.2,91,0.00,CLR,SKC,0.00,WeatherDisplay:10.37,2013-08-17 11:57:00,
2013-08-17 07:03:00,61.4,58.7,30.12,ESE,113,2.3,2.3,91,0.00,CLR,SKC,0.00,WeatherDisplay:10.37,2013-08-17 12:03:00,
2013-08-17 07:06:00,61.4,58.7,30.12,ESE,113,2.3,2.3,91,0.00,CLR,SKC,0.00,WeatherDisplay:10.37,2013-08-17 12:06:00,
2013-08-17 07:11:00,61.4,58.7,30.12,ESE,110,4.6,4.6,91,0.00,CLR,SKC,0.00,WeatherDisplay:10.37,2013-08-17 12:11:00,
2013-08-17 07:16:00,61.6,58.9,30.12,East,98,4.6,4.6,91,0.00,CLR,SKC,0.00,WeatherDisplay:10.37,2013-08-17 12:16:00,
2013-08-17 07:21:00,61.7,58.7,30.12,ESE,115,4.6,4.6,90,0.00,CLR,SKC,0.00,WeatherDisplay:10.37,2013-08-17 12:21:00,
2013-08-17 07:26:00,61.8,58.8,30.12,SE,124,3.5,3.5,90,0.00,CLR,SKC,0.00,WeatherDisplay:10.37,2013-08-17 12:26:00,
2013-08-17 07:31:00,62.0,59.0,30.12,SE,125,3.5,3.5,90,0.00,CLR,SKC,0.00,WeatherDisplay:10.37,2013-08-17 12:31:00,
2013-08-17 07:36:00,62.1,59.1,30.12,ESE,114,2.3,2.3,90,0.00,CLR,SKC,0.00,WeatherDisplay:10.37,2013-08-17 12:36:00,
2013-08-17 07:41:00,62.3,59.3,30.12,ESE,112,4.2,4.2,90,0.00,CLR,SKC,0.00,WeatherDisplay:10.37,2013-08-17 12:41:00,
2013-08-17 07:46:00,62.5,59.5,30.12,SE,124,3.5,3.5,90,0.00,CLR,SKC,0.00,WeatherDisplay:10.37,2013-08-17 12:46:00,
2013-08-17 07:51:00,63.0,60.0,30.12,ESE,110,3.2,3.2,90,0.00,CLR,SKC,0.00,WeatherDisplay:10.37,2013-08-17 12:51:00,
2013-08-17 07:56:00,63.2,59.6,30.12,SE,139,4.6,4.6,88,0.00,CLR,SKC,0.00,WeatherDisplay:10.37,2013-08-17 12:56:00,
2013-08-17 08:01:00,63.5,59.9,30.12,SE,143,3.5,3.5,88,0.00,CLR,SKC,0.00,WeatherDisplay:10.37,2013-08-17 13:01:00,
2013-08-17 08:06:00,63.7,60.1,30.12,ESE,119,2.1,2.1,88,0.00,CLR,SKC,0.00,WeatherDisplay:10.37,2013-08-17 13:06:00,
2013-08-17 08:11:00,64.0,60.1,30.12,SE,141,2.3,2.3,87,0.00,CLR,SKC,0.00,WeatherDisplay:10.37,2013-08-17 13:11:00,
2013-08-17 08:16:00,64.4,60.1,30.13,SSE,147,3.5,3.5,86,0.00,CLR,SKC,0.00,WeatherDisplay:10.37,2013-08-17 13:16:00,
2013-08-17 08:21:00,64.8,60.2,30.13,SW,232,2.3,2.3,85,0.00,CLR,SKC,0.00,WeatherDisplay:10.37,2013-08-17 13:21:00,
2013-08-17 08:26:00,65.2,60.2,30.13,SSE,150,3.2,3.2,84,0.00,CLR,SKC,0.00,WeatherDisplay:10.37,2013-08-17 13:26:00,
2013-08-17 08:31:00,65.5,60.9,30.13,SE,141,3.2,3.2,85,0.00,CLR,SKC,0.00,WeatherDisplay:10.37,2013-08-17 13:31:00,
2013-08-17 08:36:00,65.7,60.7,30.13,SSE,159,3.5,3.5,84,0.00,CLR,SKC,0.00,WeatherDisplay:10.37,2013-08-17 13:36:00,
2013-08-17 08:41:00,66.0,60.7,30.13,ESE,119,4.6,4.6,83,0.00,CLR,SKC,0.00,WeatherDisplay:10.37,2013-08-17 13:41:00,
2013-08-17 08:46:00,66.2,60.5,30.13,SE,139,4.6,4.6,82,0.00,CLR,SKC,0.00,WeatherDisplay:10.37,2013-08-17 13:46:00,
2013-08-17 08:51:00,66.5,60.5,30.14,SSW,203,3.5,3.5,81,0.00,CLR,SKC,0.00,WeatherDisplay:10.37,2013-08-17 13:51:00,
2013-08-17 08:56:00,66.5,60.5,30.14,SE,130,3.5,3.5,81,0.00,CLR,SKC,0.00,WeatherDisplay:10.37,2013-08-17 13:56:00,
2013-08-17 09:01:00,66.3,60.6,30.14,SSW,194,2.3,2.3,82,0.00,CLR,SKC,0.00,WeatherDisplay:10.37,2013-08-17 14:01:00,
2013-08-17 09:06:00,66.3,60.6,30.14,SSE,158,4.2,4.2,82,0.00,CLR,SKC,0.00,WeatherDisplay:10.37,2013-08-17 14:06:00,
2013-08-17 09:11:00,67.1,61.4,30.14,SSW,195,4.6,4.6,82,0.00,CLR,SKC,0.00,WeatherDisplay:10.37,2013-08-17 14:11:00,
2013-08-17 09:16:00,67.8,61.4,30.14,SE,134,4.6,4.6,80,0.00,CLR,SKC,0.00,WeatherDisplay:10.37,2013-08-17 14:16:00,
2013-08-17 09:21:00,68.3,61.2,30.14,SE,140,5.3,5.3,78,0.00,CLR,SKC,0.00,WeatherDisplay:10.37,2013-08-17 14:21:00,
2013-08-17 09:26:00,68.7,61.2,30.14,SSE,155,6.4,6.4,77,0.00,CLR,SKC,0.00,WeatherDisplay:10.37,2013-08-17 14:26:00,
2013-08-17 09:31:00,69.1,60.8,30.14,South,174,7.4,7.4,75,0.00,CLR,SKC,0.00,WeatherDisplay:10.37,2013-08-17 14:31:00,
2013-08-17 09:36:00,69.2,61.3,30.14,SSE,158,4.6,4.6,76,0.00,CLR,SKC,0.00,WeatherDisplay:10.37,2013-08-17 14:36:00,
2013-08-17 09:41:00,69.4,61.5,30.14,South,170,5.3,5.3,76,0.00,CLR,SKC,0.00,WeatherDisplay:10.37,2013-08-17 14:41:00,
2013-08-17 09:46:00,69.6,62.1,30.14,SE,146,4.6,4.6,77,0.00,CLR,SKC,0.00,WeatherDisplay:10.37,2013-08-17 14:46:00,
2013-08-17 09:51:00,70.0,62.1,30.14,SSW,198,6.9,6.9,76,0.00,CLR,SKC,0.00,WeatherDisplay:10.37,2013-08-17 14:51:00,
2013-08-17 09:56:00,70.3,62.4,30.14,SSW,200,4.6,4.6,76,0.00,CLR,SKC,0.00,WeatherDisplay:10.37,2013-08-17 14:56:00,
2013-08-17 10:01:00,70.4,61.7,30.13,ESE,114,5.8,5.8,74,0.00,CLR,SKC,0.00,WeatherDisplay:10.37,2013-08-17 15:01:00,
2013-08-17 10:06:00,70.9,61.0,30.13,SE,141,4.6,4.6,71,0.00,CLR,SKC,0.00,WeatherDisplay:10.37,2013-08-17 15:06:00,
2013-08-17 10:11:00,71.2,61.3,30.13,SSE,148,6.9,6.9,71,0.00,CLR,SKC,0.00,WeatherDisplay:10.37,2013-08-17 15:11:00,
2013-08-17 10:16:00,71.1,61.2,30.14,SSE,166,9.5,9.5,71,0.00,CLR,SKC,0.00,WeatherDisplay:10.37,2013-08-17 15:16:00,
2013-08-17 10:21:00,71.5,60.8,30.13,South,169,8.5,8.5,69,0.00,CLR,SKC,0.00,WeatherDisplay:10.37,2013-08-17 15:21:00,
2013-08-17 10:26:00,71.6,60.9,30.13,SSE,165,8.5,8.5,69,0.00,CLR,SKC,0.00,WeatherDisplay:10.37,2013-08-17 15:26:00,
2013-08-17 10:31:00,72.0,60.9,30.13,ESE,122,6.4,6.4,68,0.00,CLR,SKC,0.00,WeatherDisplay:10.37,2013-08-17 15:31:00,
2013-08-17 10:36:00,72.3,59.9,30.13,SE,131,8.5,8.5,65,0.00,CLR,SKC,0.00,WeatherDisplay:10.37,2013-08-17 15:36:00,
2013-08-17 10:41:00,72.6,61.0,30.13,SE,134,7.4,7.4,67,0.00,CLR,SKC,0.00,WeatherDisplay:10.37,2013-08-17 15:41:00,
2013-08-17 10:46:00,72.8,60.8,30.13,SE,139,6.9,6.9,66,0.00,CLR,SKC,0.00,WeatherDisplay:10.37,2013-08-17 15:46:00,
2013-08-17 10:51:00,73.0,59.2,30.13,SE,128,7.4,7.4,62,0.00,CLR,SKC,0.00,WeatherDisplay:10.37,2013-08-17 15:51:00,
2013-08-17 10:56:00,73.2,60.3,30.13,SE,146,5.3,5.3,64,0.00,CLR,SKC,0.00,WeatherDisplay:10.37,2013-08-17 15:56:00,
2013-08-17 11:01:00,73.3,59.9,30.13,ESE,107,6.9,6.9,63,0.00,CLR,SKC,0.00,WeatherDisplay:10.37,2013-08-17 16:01:00,
2013-08-17 11:06:00,73.7,60.8,30.13,SSE,160,7.4,7.4,64,0.00,CLR,SKC,0.00,WeatherDisplay:10.37,2013-08-17 16:06:00,
2013-08-17 11:11:00,73.7,58.9,30.13,SE,124,10.4,10.4,60,0.00,CLR,SKC,0.00,WeatherDisplay:10.37,2013-08-17 16:11:00,
2013-08-17 11:16:00,73.6,58.4,30.13,South,175,9.5,9.5,59,0.00,CLR,SKC,0.00,WeatherDisplay:10.37,2013-08-17 16:16:00,
2013-08-17 11:21:00,73.9,59.1,30.13,SE,139,9.2,9.2,60,0.00,CLR,SKC,0.00,WeatherDisplay:10.37,2013-08-17 16:21:00,
2013-08-17 11:26:00,74.0,58.8,30.13,SSE,154,8.5,8.5,59,0.00,CLR,SKC,0.00,WeatherDisplay:10.37,2013-08-17 16:26:00,
2013-08-17 11:31:00,74.4,58.7,30.13,SSE,158,7.4,7.4,58,0.00,CLR,SKC,0.00,WeatherDisplay:10.37,2013-08-17 16:31:00,
2013-08-17 11:36:00,74.5,59.7,30.13,SSE,156,11.7,11.7,60,0.00,CLR,SKC,0.00,WeatherDisplay:10.37,2013-08-17 16:36:00,
2013-08-17 11:41:00,74.4,59.6,30.12,SE,129,9.5,9.5,60,0.00,CLR,SKC,0.00,WeatherDisplay:10.37,2013-08-17 16:41:00,
2013-08-17 11:46:00,74.4,59.6,30.12,SE,127,11.7,11.7,60,0.00,CLR,SKC,0.00,WeatherDisplay:10.37,2013-08-17 16:46:00,
2013-08-17 11:51:00,74.5,57.8,30.12,SE,131,15.0,15.0,56,0.00,CLR,SKC,0.00,WeatherDisplay:10.37,2013-08-17 16:51:00,
2013-08-17 11:56:00,74.3,58.6,30.12,SSE,160,12.7,12.7,58,0.00,CLR,SKC,0.00,WeatherDisplay:10.37,2013-08-17 16:56:00,
2013-08-17 12:01:00,74.6,57.9,30.12,SSE,154,11.7,11.7,56,0.00,CLR,SKC,0.00,WeatherDisplay:10.37,2013-08-17 17:01:00,
2013-08-17 12:07:00,74.5,56.8,30.12,SE,129,11.7,11.7,54,0.00,CLR,SKC,0.00,WeatherDisplay:10.37,2013-08-17 17:07:00,
2013-08-17 12:12:00,74.6,58.4,30.12,SSW,211,8.5,8.5,57,0.00,CLR,SKC,0.00,WeatherDisplay:10.37,2013-08-17 17:12:00,
2013-08-17 12:17:00,75.0,58.7,30.12,SW,217,9.5,9.5,57,0.00,CLR,SKC,0.00,WeatherDisplay:10.37,2013-08-17 17:17:00,
2013-08-17 12:22:00,74.6,57.9,30.12,ESE,117,11.5,11.5,56,0.00,CLR,SKC,0.00,WeatherDisplay:10.37,2013-08-17 17:22:00,
2013-08-17 12:27:00,75.0,57.7,30.12,SSW,198,7.4,7.4,55,0.00,CLR,SKC,0.00,WeatherDisplay:10.37,2013-08-17 17:27:00,
2013-08-17 12:32:00,75.4,59.1,30.12,SE,134,11.7,11.7,57,0.00,CLR,SKC,0.00,WeatherDisplay:10.37,2013-08-17 17:32:00,
2013-08-17 12:37:00,75.2,59.4,30.11,South,185,6.9,6.9,58,0.00,CLR,SKC,0.00,WeatherDisplay:10.37,2013-08-17 17:37:00,
2013-08-17 12:42:00,75.3,59.0,30.12,SSE,148,9.2,9.2,57,0.00,CLR,SKC,0.00,WeatherDisplay:10.37,2013-08-17 17:42:00,
2013-08-17 12:47:00,75.5,60.6,30.12,SSE,153,11.7,11.7,60,0.00,CLR,SKC,0.00,WeatherDisplay:10.37,2013-08-17 17:47:00,
2013-08-17 12:52:00,75.8,60.0,30.11,SE,145,7.4,7.4,58,0.00,CLR,SKC,0.00,WeatherDisplay:10.37,2013-08-17 17:52:00,
2013-08-17 12:57:00,75.8,58.0,30.11,ESE,115,10.4,10.4,54,0.00,CLR,SKC,0.00,WeatherDisplay:10.37,2013-08-17 17:57:00,
2013-08-17 13:02:00,75.5,59.2,30.11,SSE,153,9.2,9.2,57,0.00,CLR,SKC,0.00,WeatherDisplay:10.37,2013-08-17 18:02:00,
2013-08-17 13:07:00,75.6,59.8,30.11,SSW,194,9.5,9.5,58,0.00,CLR,SKC,0.00,WeatherDisplay:10.37,2013-08-17 18:07:00,
2013-08-17 13:12:00,75.6,58.3,30.11,SE,135,10.6,10.6,55,0.00,CLR,SKC,0.00,WeatherDisplay:10.37,2013-08-17 18:12:00,
2013-08-17 13:17:00,76.0,58.7,30.11,SSE,158,10.6,10.6,55,0.00,CLR,SKC,0.00,WeatherDisplay:10.37,2013-08-17 18:17:00,
2013-08-17 13:22:00,76.0,58.7,30.11,SSE,149,10.6,10.6,55,0.00,CLR,SKC,0.00,WeatherDisplay:10.37,2013-08-17 18:22:00,
2013-08-17 13:27:00,76.2,58.9,30.11,SE,135,10.6,10.6,55,0.00,CLR,SKC,0.00,WeatherDisplay:10.37,2013-08-17 18:27:00,
2013-08-17 13:32:00,76.1,58.8,30.11,SSE,165,9.5,9.5,55,0.00,CLR,SKC,0.00,WeatherDisplay:10.37,2013-08-17 18:32:00,
2013-08-17 13:37:00,76.3,59.4,30.11,SE,137,9.5,9.5,56,0.00,CLR,SKC,0.00,WeatherDisplay:10.37,2013-08-17 18:37:00,
2013-08-17 13:42:00,76.4,58.5,30.10,SSE,151,10.6,10.6,54,0.00,CLR,SKC,0.00,WeatherDisplay:10.37,2013-08-17 18:42:00,
2013-08-17 13:47:00,75.8,58.5,30.10,SE,143,7.4,7.4,55,0.00,CLR,SKC,0.00,WeatherDisplay:10.37,2013-08-17 18:47:00,
2013-08-17 13:52:00,75.8,59.0,30.10,SE,139,9.5,9.5,56,0.00,CLR,SKC,0.00,WeatherDisplay:10.37,2013-08-17 18:52:00,
2013-08-17 13:57:00,75.8,58.0,30.10,ESE,108,9.5,9.5,54,0.00,CLR,SKC,0.00,WeatherDisplay:10.37,2013-08-17 18:57:00,
2013-08-17 14:02:00,75.5,58.7,30.10,SSE,153,6.9,6.9,56,0.00,CLR,SKC,0.00,WeatherDisplay:10.37,2013-08-17 19:02:00,
2013-08-17 14:07:00,75.8,59.0,30.09,SE,141,9.5,9.5,56,0.00,CLR,SKC,0.00,WeatherDisplay:10.37,2013-08-17 19:07:00,
2013-08-17 14:12:00,76.2,58.3,30.09,SE,131,10.6,10.6,54,0.00,CLR,SKC,0.00,WeatherDisplay:10.37,2013-08-17 19:12:00,
2013-08-17 14:17:00,76.5,60.1,30.09,ESE,112,10.6,10.6,57,0.00,CLR,SKC,0.00,WeatherDisplay:10.37,2013-08-17 19:17:00,
2013-08-17 14:22:00,76.6,58.7,30.09,SE,137,9.5,9.5,54,0.00,CLR,SKC,0.00,WeatherDisplay:10.37,2013-08-17 19:22:00,
2013-08-17 14:27:00,77.0,59.6,30.09,SSE,148,8.5,8.5,55,0.00,CLR,SKC,0.00,WeatherDisplay:10.37,2013-08-17 19:27:00,
2013-08-17 14:32:00,77.1,59.2,30.09,SSE,148,11.5,11.5,54,0.00,CLR,SKC,0.00,WeatherDisplay:10.37,2013-08-17 19:32:00,
2013-08-17 14:37:00,77.1,60.2,30.09,ESE,122,7.4,7.4,56,0.00,CLR,SKC,0.00,WeatherDisplay:10.37,2013-08-17 19:37:00,
2013-08-17 14:42:00,76.6,60.2,30.09,ESE,122,4.6,4.6,57,0.00,CLR,SKC,0.00,WeatherDisplay:10.37,2013-08-17 19:42:00,
2013-08-17 14:47:00,77.2,59.3,30.09,SE,127,8.5,8.5,54,0.00,CLR,SKC,0.00,WeatherDisplay:10.37,2013-08-17 19:47:00,
2013-08-17 14:52:00,76.9,59.5,30.08,SE,129,9.5,9.5,55,0.00,CLR,SKC,0.00,WeatherDisplay:10.37,2013-08-17 19:52:00,
2013-08-17 14:57:00,76.6,59.2,30.08,East,97,8.1,8.1,55,0.00,CLR,SKC,0.00,WeatherDisplay:10.37,2013-08-17 19:57:00,
2013-08-17 15:02:00,77.0,57.5,30.08,SE,136,8.5,8.5,51,0.00,CLR,SKC,0.00,WeatherDisplay:10.37,2013-08-17 20:02:00,
2013-08-17 15:07:00,77.2,60.8,30.08,SE,137,6.9,6.9,57,0.00,CLR,SKC,0.00,WeatherDisplay:10.37,2013-08-17 20:07:00,
2013-08-17 15:12:00,77.2,59.3,30.08,SSE,158,9.5,9.5,54,0.00,CLR,SKC,0.00,WeatherDisplay:10.37,2013-08-17 20:12:00,
2013-08-17 15:17:00,77.2,58.7,30.08,SE,143,6.9,6.9,53,0.00,CLR,SKC,0.00,WeatherDisplay:10.37,2013-08-17 20:17:00,
2013-08-17 15:22:00,77.3,58.8,30.08,SE,139,10.4,10.4,53,0.00,CLR,SKC,0.00,WeatherDisplay:10.37,2013-08-17 20:22:00,
2013-08-17 15:27:00,77.7,59.2,30.08,SSE,154,7.4,7.4,53,0.00,CLR,SKC,0.00,WeatherDisplay:10.37,2013-08-17 20:27:00,
2013-08-17 15:32:00,77.9,59.4,30.08,ESE,123,6.9,6.9,53,0.00,CLR,SKC,0.00,WeatherDisplay:10.37,2013-08-17 20:32:00,
2013-08-17 15:37:00,78.1,59.6,30.08,South,174,9.5,9.5,53,0.00,CLR,SKC,0.00,WeatherDisplay:10.37,2013-08-17 20:37:00,
2013-08-17 15:42:00,78.2,59.7,30.07,SSE,166,7.4,7.4,53,0.00,CLR,SKC,0.00,WeatherDisplay:10.37,2013-08-17 20:42:00,
2013-08-17 15:47:00,78.6,59.0,30.07,South,188,6.9,6.9,51,0.00,CLR,SKC,0.00,WeatherDisplay:10.37,2013-08-17 20:47:00,
2013-08-17 15:52:00,78.5,59.9,30.07,ESE,117,10.4,10.4,53,0.00,CLR,SKC,0.00,WeatherDisplay:10.37,2013-08-17 20:52:00,
2013-08-17 15:57:00,78.2,58.6,30.07,SW,218,7.4,7.4,51,0.00,CLR,SKC,0.00,WeatherDisplay:10.37,2013-08-17 20:57:00,
2013-08-17 16:02:00,77.7,59.7,30.07,ESE,110,7.4,7.4,54,0.00,CLR,SKC,0.00,WeatherDisplay:10.37,2013-08-17 21:02:00,
2013-08-17 16:07:00,77.6,58.6,30.07,SSE,157,7.4,7.4,52,0.00,CLR,SKC,0.00,WeatherDisplay:10.37,2013-08-17 21:07:00,
2013-08-17 16:12:00,76.9,58.5,30.07,SE,137,5.8,5.8,53,0.00,CLR,SKC,0.00,WeatherDisplay:10.37,2013-08-17 21:12:00,
2013-08-17 16:17:00,77.4,61.9,30.07,ESE,115,11.5,11.5,59,0.00,CLR,SKC,0.00,WeatherDisplay:10.37,2013-08-17 21:17:00,
2013-08-17 16:22:00,78.0,61.0,30.07,SE,129,6.9,6.9,56,0.00,CLR,SKC,0.00,WeatherDisplay:10.37,2013-08-17 21:22:00,
2013-08-17 16:27:00,78.2,58.6,30.07,SE,136,12.7,12.7,51,0.00,CLR,SKC,0.00,WeatherDisplay:10.37,2013-08-17 21:27:00,
2013-08-17 16:32:00,77.4,58.9,30.06,SE,124,9.5,9.5,53,0.00,CLR,SKC,0.00,WeatherDisplay:10.37,2013-08-17 21:32:00,
2013-08-17 16:37:00,76.5,60.1,30.06,ESE,107,5.8,5.8,57,0.00,CLR,SKC,0.00,WeatherDisplay:10.37,2013-08-17 21:37:00,
2013-08-17 16:42:00,77.1,60.7,30.06,SE,127,9.5,9.5,57,0.00,CLR,SKC,0.00,WeatherDisplay:10.37,2013-08-17 21:42:00,
2013-08-17 16:47:00,77.4,60.0,30.06,SE,141,7.4,7.4,55,0.00,CLR,SKC,0.00,WeatherDisplay:10.37,2013-08-17 21:47:00,
2013-08-17 16:52:00,77.6,58.6,30.06,SE,139,7.4,7.4,52,0.00,CLR,SKC,0.00,WeatherDisplay:10.37,2013-08-17 21:52:00,
2013-08-17 16:57:00,77.9,57.8,30.06,SSE,155,8.5,8.5,50,0.00,CLR,SKC,0.00,WeatherDisplay:10.37,2013-08-17 21:57:00,
2013-08-17 17:02:00,77.9,58.9,30.06,SE,142,8.5,8.5,52,0.00,CLR,SKC,0.00,WeatherDisplay:10.37,2013-08-17 22:02:00,
2013-08-17 17:24:00,77.2,58.2,30.05,SE,142,8.5,8.5,52,0.00,CLR,SKC,0.00,WeatherDisplay:10.37,2013-08-17 22:24:00,
2013-08-17 17:29:00,77.1,59.2,30.05,South,173,6.4,6.4,54,0.00,CLR,SKC,0.00,WeatherDisplay:10.37,2013-08-17 22:29:00,
2013-08-17 17:34:00,77.5,58.5,30.05,South,191,6.9,6.9,52,0.00,CLR,SKC,0.00,WeatherDisplay:10.37,2013-08-17 22:34:00,
2013-08-17 17:39:00,77.5,59.5,30.05,SSW,208,7.4,7.4,54,0.00,CLR,SKC,0.00,WeatherDisplay:10.37,2013-08-17 22:39:00,
2013-08-17 17:44:00,77.2,59.3,30.05,ESE,117,6.9,6.9,54,0.00,CLR,SKC,0.00,WeatherDisplay:10.37,2013-08-17 22:44:00,
2013-08-17 17:49:00,77.2,60.3,30.06,ESE,103,4.6,4.6,56,0.00,CLR,SKC,0.00,WeatherDisplay:10.37,2013-08-17 22:49:00,
2013-08-17 17:54:00,77.4,58.9,30.06,ESE,118,8.1,8.1,53,0.00,CLR,SKC,0.00,WeatherDisplay:10.37,2013-08-17 22:54:00,
2013-08-17 17:59:00,77.2,58.7,30.05,SE,134,7.4,7.4,53,0.00,CLR,SKC,0.00,WeatherDisplay:10.37,2013-08-17 22:59:00,
2013-08-17 18:04:00,77.0,58.6,30.05,ESE,117,8.1,8.1,53,0.00,CLR,SKC,0.00,WeatherDisplay:10.37,2013-08-17 23:04:00,
2013-08-17 18:09:00,77.0,58.6,30.05,SE,127,7.4,7.4,53,0.00,CLR,SKC,0.00,WeatherDisplay:10.37,2013-08-17 23:09:00,
2013-08-17 18:14:00,76.9,58.5,30.05,South,175,6.4,6.4,53,0.00,CLR,SKC,0.00,WeatherDisplay:10.37,2013-08-17 23:14:00,
2013-08-17 18:19:00,77.0,59.6,30.05,SSE,167,4.6,4.6,55,0.00,CLR,SKC,0.00,WeatherDisplay:10.37,2013-08-17 23:19:00,
2013-08-17 18:24:00,77.1,58.6,30.05,SE,130,8.5,8.5,53,0.00,CLR,SKC,0.00,WeatherDisplay:10.37,2013-08-17 23:24:00,
2013-08-17 18:29:00,76.9,58.5,30.05,SE,136,4.6,4.6,53,0.00,CLR,SKC,0.00,WeatherDisplay:10.37,2013-08-17 23:29:00,
2013-08-17 18:34:00,77.1,59.7,30.05,SE,139,6.4,6.4,55,0.00,CLR,SKC,0.00,WeatherDisplay:10.37,2013-08-17 23:34:00,
2013-08-17 18:39:00,77.1,59.2,30.05,SSE,148,4.2,4.2,54,0.00,CLR,SKC,0.00,WeatherDisplay:10.37,2013-08-17 23:39:00,
2013-08-17 18:44:00,77.1,59.7,30.05,South,170,5.3,5.3,55,0.00,CLR,SKC,0.00,WeatherDisplay:10.37,2013-08-17 23:44:00,
2013-08-17 18:49:00,76.7,58.8,30.05,SE,134,9.5,9.5,54,0.00,CLR,SKC,0.00,WeatherDisplay:10.37,2013-08-17 23:49:00,
2013-08-17 18:54:00,75.9,58.6,30.05,ESE,121,7.4,7.4,55,0.00,CLR,SKC,0.00,WeatherDisplay:10.37,2013-08-17 23:54:00,
2013-08-17 18:59:00,75.4,59.1,30.05,ESE,119,5.3,5.3,57,0.00,CLR,SKC,0.00,WeatherDisplay:10.37,2013-08-17 23:59:00,
2013-08-17 19:04:00,75.1,59.3,30.05,ESE,120,5.8,5.8,58,0.00,CLR,SKC,0.00,WeatherDisplay:10.37,2013-08-18 00:04:00,
2013-08-17 19:09:00,74.9,58.6,30.05,SE,146,6.9,6.9,57,0.00,CLR,SKC,0.00,WeatherDisplay:10.37,2013-08-18 00:09:00,
2013-08-17 19:14:00,74.6,59.3,30.05,SE,131,4.6,4.6,59,0.00,CLR,SKC,0.00,WeatherDisplay:10.37,2013-08-18 00:14:00,
2013-08-17 19:19:00,74.3,59.0,30.05,ESE,108,4.6,4.6,59,0.00,CLR,SKC,0.00,WeatherDisplay:10.37,2013-08-18 00:19:00,
2013-08-17 19:24:00,74.1,59.8,30.05,East,101,4.6,4.6,61,0.00,CLR,SKC,0.00,WeatherDisplay:10.37,2013-08-18 00:24:00,
2013-08-17 19:29:00,73.7,59.9,30.05,SSE,152,3.5,3.5,62,0.00,CLR,SKC,0.00,WeatherDisplay:10.37,2013-08-18 00:29:00,
2013-08-17 19:34:00,73.3,59.9,30.05,East,101,3.5,3.5,63,0.00,CLR,SKC,0.00,WeatherDisplay:10.37,2013-08-18 00:34:00,
2013-08-17 19:39:00,72.9,60.0,30.05,SE,126,2.3,2.3,64,0.00,CLR,SKC,0.00,WeatherDisplay:10.37,2013-08-18 00:39:00,
2013-08-17 19:44:00,72.6,60.2,30.05,SE,129,2.3,2.3,65,0.00,CLR,SKC,0.00,WeatherDisplay:10.37,2013-08-18 00:44:00,
2013-08-17 19:49:00,72.1,60.1,30.05,SE,124,2.3,2.3,66,0.00,CLR,SKC,0.00,WeatherDisplay:10.37,2013-08-18 00:49:00,
2013-08-17 19:54:00,71.4,60.3,30.05,SE,126,1.2,1.2,68,0.00,CLR,SKC,0.00,WeatherDisplay:10.37,2013-08-18 00:54:00,
2013-08-17 19:59:00,70.9,60.2,30.05,ESE,121,1.2,1.2,69,0.00,CLR,SKC,0.00,WeatherDisplay:10.37,2013-08-18 00:59:00,
2013-08-17 20:04:00,70.4,59.7,30.05,ESE,119,1.2,1.2,69,0.00,CLR,SKC,0.00,WeatherDisplay:10.37,2013-08-18 01:04:00,
2013-08-17 20:09:00,69.9,59.7,30.05,ESE,120,0.0,0.0,70,0.00,CLR,SKC,0.00,WeatherDisplay:10.37,2013-08-18 01:09:00,
2013-08-17 20:14:00,69.4,59.6,30.05,ESE,114,0.0,0.0,71,0.00,CLR,SKC,0.00,WeatherDisplay:10.37,2013-08-18 01:14:00,
2013-08-17 20:19:00,69.0,59.2,30.05,ESE,110,0.0,0.0,71,0.00,CLR,SKC,0.00,WeatherDisplay:10.37,2013-08-18 01:19:00,
2013-08-17 20:25:00,68.6,58.8,30.05,ESE,102,0.0,0.0,71,0.00,CLR,SKC,0.00,WeatherDisplay:10.37,2013-08-18 01:25:00,
2013-08-17 20:29:00,68.0,58.7,30.05,East,98,0.0,1.0,72,0.00,CLR,SKC,0.00,WeatherDisplay:10.37,2013-08-18 01:29:00,
2013-08-17 20:34:00,67.5,58.9,30.05,East,91,1.2,1.2,74,0.00,CLR,SKC,0.00,WeatherDisplay:10.37,2013-08-18 01:34:00,
2013-08-17 20:40:00,67.1,58.5,30.05,ESE,103,1.2,1.2,74,0.00,CLR,SKC,0.00,WeatherDisplay:10.37,2013-08-18 01:40:00,
2013-08-17 20:45:00,66.8,58.2,30.05,ESE,103,1.2,0.0,74,0.00,CLR,SKC,0.00,WeatherDisplay:10.37,2013-08-18 01:45:00,
2013-08-17 20:50:00,66.6,58.4,30.05,ESE,103,0.0,0.0,75,0.00,CLR,SKC,0.00,WeatherDisplay:10.37,2013-08-18 01:50:00,
2013-08-17 20:55:00,65.9,58.1,30.05,ESE,103,0.0,0.0,76,0.00,CLR,SKC,0.00,WeatherDisplay:10.37,2013-08-18 01:55:00,
2013-08-17 21:00:00,65.6,58.6,30.05,ESE,103,0.0,0.0,78,0.00,CLR,SKC,0.00,WeatherDisplay:10.37,2013-08-18 02:00:00,
2013-08-17 21:05:00,65.1,58.4,30.05,ESE,103,0.0,0.0,79,0.00,CLR,SKC,0.00,WeatherDisplay:10.37,2013-08-18 02:05:00,
2013-08-17 21:10:00,65.2,58.2,30.05,ESE,103,0.0,0.0,78,0.00,CLR,SKC,0.00,WeatherDisplay:10.37,2013-08-18 02:10:00,
2013-08-17 21:15:00,65.6,58.2,30.05,ESE,103,0.0,0.0,77,0.00,CLR,SKC,0.00,WeatherDisplay:10.37,2013-08-18 02:15:00,
2013-08-17 21:20:00,65.2,58.2,30.05,ESE,103,0.0,0.0,78,0.00,CLR,SKC,0.00,WeatherDisplay:10.37,2013-08-18 02:20:00,
2013-08-17 21:25:00,64.5,57.8,30.05,ESE,103,0.0,0.0,79,0.00,CLR,SKC,0.00,WeatherDisplay:10.37,2013-08-18 02:25:00,
2013-08-17 21:30:00,64.2,57.5,30.05,ESE,103,0.0,0.0,79,0.00,CLR,SKC,0.00,WeatherDisplay:10.37,2013-08-18 02:30:00,
2013-08-17 21:35:00,64.6,57.9,30.05,East,97,0.0,0.0,79,0.00,CLR,SKC,0.00,WeatherDisplay:10.37,2013-08-18 02:35:00,
2013-08-17 21:40:00,64.3,58.0,30.06,East,96,0.0,0.0,80,0.00,CLR,SKC,0.00,WeatherDisplay:10.37,2013-08-18 02:40:00,
2013-08-17 21:45:00,63.5,57.9,30.06,East,96,0.0,0.0,82,0.00,CLR,SKC,0.00,WeatherDisplay:10.37,2013-08-18 02:45:00,
2013-08-17 21:50:00,63.6,58.3,30.06,East,96,0.0,0.0,83,0.00,CLR,SKC,0.00,WeatherDisplay:10.37,2013-08-18 02:50:00,
2013-08-17 21:55:00,63.3,58.0,30.06,East,96,0.0,0.0,83,0.00,CLR,SKC,0.00,WeatherDisplay:10.37,2013-08-18 02:55:00,
2013-08-17 22:00:00,62.9,58.0,30.06,East,96,0.0,0.0,84,0.00,CLR,SKC,0.00,WeatherDisplay:10.37,2013-08-18 03:00:00,
2013-08-17 22:05:00,62.7,57.8,30.06,East,96,0.0,0.0,84,0.00,CLR,SKC,0.00,WeatherDisplay:10.37,2013-08-18 03:05:00,
2013-08-17 22:10:00,63.0,58.1,30.06,East,96,0.0,0.0,84,0.00,CLR,SKC,0.00,WeatherDisplay:10.37,2013-08-18 03:10:00,
2013-08-17 22:15:00,62.8,57.9,30.06,East,96,0.0,0.0,84,0.00,CLR,SKC,0.00,WeatherDisplay:10.37,2013-08-18 03:15:00,
2013-08-17 22:20:00,62.5,57.9,30.06,East,96,0.0,0.0,85,0.00,CLR,SKC,0.00,WeatherDisplay:10.37,2013-08-18 03:20:00,
2013-08-17 22:25:00,62.5,57.6,30.06,East,96,0.0,0.0,84,0.00,CLR,SKC,0.00,WeatherDisplay:10.37,2013-08-18 03:25:00,
2013-08-17 22:30:00,62.3,57.7,30.06,East,96,0.0,0.0,85,0.00,CLR,SKC,0.00,WeatherDisplay:10.37,2013-08-18 03:30:00,
2013-08-17 22:35:00,62.3,57.7,30.06,East,97,0.0,0.0,85,0.00,CLR,SKC,0.00,WeatherDisplay:10.37,2013-08-18 03:35:00,
2013-08-17 22:40:00,62.8,57.9,30.06,East,97,0.0,0.0,84,0.00,CLR,SKC,0.00,WeatherDisplay:10.37,2013-08-18 03:40:00,
2013-08-17 22:45:00,62.7,57.8,30.06,East,97,0.0,0.0,84,0.00,CLR,SKC,0.00,WeatherDisplay:10.37,2013-08-18 03:45:00,
2013-08-17 22:50:00,62.9,57.7,30.06,East,96,0.0,0.0,83,0.00,CLR,SKC,0.00,WeatherDisplay:10.37,2013-08-18 03:50:00,
2013-08-17 22:55:00,62.4,57.5,30.06,East,97,0.0,0.0,84,0.00,CLR,SKC,0.00,WeatherDisplay:10.37,2013-08-18 03:55:00,
2013-08-17 23:00:00,62.1,57.5,30.06,East,97,0.0,0.0,85,0.00,CLR,SKC,0.00,WeatherDisplay:10.37,2013-08-18 04:00:00,
2013-08-17 23:01:00,62.1,57.5,30.06,East,96,0.0,0.0,85,0.00,CLR,SKC,0.00,WeatherDisplay:10.37,2013-08-18 04:01:00,
2013-08-17 23:06:00,62.1,57.5,30.06,East,97,0.0,0.0,85,0.00,CLR,SKC,0.00,WeatherDisplay:10.37,2013-08-18 04:06:00,
2013-08-17 23:11:00,62.3,57.4,30.06,East,97,0.0,0.0,84,0.00,CLR,SKC,0.00,WeatherDisplay:10.37,2013-08-18 04:11:00,
2013-08-17 23:16:00,62.4,57.5,30.06,East,97,0.0,0.0,84,0.00,CLR,SKC,0.00,WeatherDisplay:10.37,2013-08-18 04:16:00,
2013-08-17 23:21:00,62.3,57.4,30.06,East,97,0.0,0.0,84,0.00,CLR,SKC,0.00,WeatherDisplay:10.37,2013-08-18 04:21:00,
2013-08-17 23:27:00,62.2,57.3,30.06,East,97,0.0,0.0,84,0.00,CLR,SKC,0.00,WeatherDisplay:10.37,2013-08-18 04:27:00,
2013-08-17 23:32:00,61.6,56.7,30.06,East,97,0.0,0.0,84,0.00,CLR,SKC,0.00,WeatherDisplay:10.37,2013-08-18 04:32:00,
2013-08-17 23:37:00,60.9,56.7,30.06,East,97,0.0,0.0,86,0.00,CLR,SKC,0.00,WeatherDisplay:10.37,2013-08-18 04:37:00,
2013-08-17 23:42:00,60.3,56.4,30.06,East,97,0.0,0.0,87,0.00,CLR,SKC,0.00,WeatherDisplay:10.37,2013-08-18 04:42:00,
2013-08-17 23:47:00,60.1,56.5,30.06,East,97,0.0,0.0,88,0.00,CLR,SKC,0.00,WeatherDisplay:10.37,2013-08-18 04:47:00,
2013-08-17 23:52:00,61.3,57.1,30.06,East,97,0.0,0.0,86,0.00,CLR,SKC,0.00,WeatherDisplay:10.37,2013-08-18 04:52:00,
2013-08-17 23:57:00,61.6,57.4,30.07,ESE,112,0.0,0.0,86,0.00,CLR,SKC,0.00,WeatherDisplay:10.37,2013-08-18 04:57:00,